Time;durP1;ratioP1;P1;durP2;ratioP2;P2;SDS_P1;SDS_P2;PMS_P1;PMS_P2;Temp;Humidity;BMP_temperature;BMP_pressure;BME280_temperature;BME280_humidity;BME280_pressure;Samples;Min_cycle;Max_cycle;Signal;HPM_P1;HPM_P2
2023/07/16 00:02:06;;;;;;;21.77;15.80;;;;;;;22.95;87.70;93127.09;5011654;28;20278;-74
2023/07/16 00:04:32;;;;;;;18.70;16.98;;;;;;;22.90;88.10;93119.34;5012714;28;20479;-74
2023/07/16 00:07:00;;;;;;;19.55;17.52;;;;;;;22.68;89.32;93121.81;5011881;28;20195;-74
2023/07/16 00:09:25;;;;;;;18.60;15.90;;;;;;;22.66;89.84;93121.38;5013766;28;20194;-74
2023/07/16 00:11:51;;;;;;;22.25;17.73;;;;;;;22.73;90.32;93117.00;5018058;28;20248;-74
2023/07/16 00:14:17;;;;;;;19.63;17.42;;;;;;;22.30;92.66;93116.94;5011492;28;20186;-72
2023/07/16 00:16:43;;;;;;;19.13;17.38;;;;;;;22.20;93.35;93106.78;5010138;28;20206;-74
2023/07/16 00:19:11;;;;;;;20.33;18.17;;;;;;;22.55;92.75;93123.75;5017334;28;20218;-74
2023/07/16 00:21:37;;;;;;;19.85;17.75;;;;;;;22.53;92.20;93110.00;5011153;28;20258;-74
2023/07/16 00:24:03;;;;;;;17.70;15.85;;;;;;;22.50;91.90;93104.56;5011602;28;20208;-74
2023/07/16 00:26:28;;;;;;;20.90;18.42;;;;;;;22.65;91.94;93123.25;5018700;28;20230;-74
2023/07/16 00:28:54;;;;;;;19.55;17.60;;;;;;;22.48;92.56;93120.84;5008981;28;20758;-74
2023/07/16 00:31:19;;;;;;;20.73;17.77;;;;;;;22.50;92.95;93123.97;5011653;28;20704;-76
2023/07/16 00:33:45;;;;;;;20.05;17.75;;;;;;;22.40;92.79;93113.78;5008129;28;21200;-75
2023/07/16 00:36:10;;;;;;;19.70;17.80;;;;;;;22.50;92.41;93121.31;5011600;28;20878;-75
2023/07/16 00:38:35;;;;;;;20.67;18.52;;;;;;;22.49;92.62;93125.06;5008248;28;20502;-76
2023/07/16 00:41:01;;;;;;;19.75;17.85;;;;;;;22.52;93.30;93124.44;5011363;28;20276;-74
2023/07/16 00:43:26;;;;;;;20.08;18.13;;;;;;;22.53;93.16;93131.31;5024275;28;20212;-75
2023/07/16 00:45:51;;;;;;;21.27;17.60;;;;;;;22.34;93.83;93125.78;5009538;28;20238;-75
2023/07/16 00:48:18;;;;;;;20.15;18.08;;;;;;;22.38;93.53;93124.03;5013473;28;20185;-75
2023/07/16 00:50:44;;;;;;;20.58;18.45;;;;;;;22.36;93.43;93128.91;5011136;28;20229;-75
2023/07/16 00:53:10;;;;;;;21.38;18.48;;;;;;;22.46;93.47;93122.31;5008267;28;20214;-74
2023/07/16 00:55:36;;;;;;;21.15;18.05;;;;;;;22.33;93.01;93121.59;5012829;28;20249;-75
2023/07/16 00:58:05;;;;;;;18.50;16.75;;;;;;;22.23;94.68;93122.84;5014333;28;20254;-75
2023/07/16 01:00:32;;;;;;;20.83;18.75;;;;;;;22.12;94.72;93107.69;5017820;28;20210;-75
2023/07/16 01:02:58;;;;;;;25.17;17.65;;;;;;;22.23;95.23;93111.41;5023582;28;20188;-75
2023/07/16 01:05:25;;;;;;;19.38;17.40;;;;;;;22.31;95.27;93113.16;5027430;28;20261;-74
2023/07/16 01:08:01;;;;;;;19.77;17.77;;;;;;;22.08;95.38;93104.16;5015307;28;20191;-75
2023/07/16 01:10:28;;;;;;;20.77;18.65;;;;;;;22.11;95.55;93116.78;5016304;28;20225;-75
2023/07/16 01:12:56;;;;;;;19.92;18.02;;;;;;;22.17;95.47;93112.78;5013409;28;20185;-75
2023/07/16 01:15:22;;;;;;;20.25;18.35;;;;;;;22.08;95.88;93109.47;5028620;28;20533;-75
2023/07/16 01:17:47;;;;;;;19.65;17.55;;;;;;;22.03;96.27;93117.69;5012326;28;20190;-76
2023/07/16 01:20:12;;;;;;;21.40;18.20;;;;;;;21.99;96.99;93119.47;5031345;28;20231;-75
2023/07/16 01:23:10;;;;;;;18.65;16.75;;;;;;;21.95;97.27;93115.91;5024890;28;20190;-75
2023/07/16 01:25:50;;;;;;;19.85;17.85;;;;;;;21.93;97.28;93118.91;5009232;28;20267;-75
2023/07/16 01:28:31;;;;;;;20.25;17.80;;;;;;;21.86;97.49;93113.41;5013844;28;20230;-75
2023/07/16 01:30:58;;;;;;;18.80;16.90;;;;;;;21.94;97.36;93109.84;5013097;28;20240;-76
2023/07/16 01:33:25;;;;;;;21.08;18.88;;;;;;;21.85;97.80;93105.75;5025098;28;20191;-76
2023/07/16 01:35:51;;;;;;;18.73;16.80;;;;;;;21.87;98.14;93108.84;5020302;28;20231;-75
2023/07/16 01:38:18;;;;;;;20.80;18.60;;;;;;;21.94;97.38;93103.75;4992727;28;20191;-75
2023/07/16 01:40:44;;;;;;;20.92;17.42;;;;;;;21.90;97.27;93108.16;5005119;28;20221;-75
2023/07/16 01:43:09;;;;;;;19.52;17.63;;;;;;;21.83;98.10;93103.44;5013735;28;20285;-75
2023/07/16 01:45:35;;;;;;;20.80;18.60;;;;;;;21.77;98.86;93107.44;5012695;28;20239;-75
2023/07/16 01:48:22;;;;;;;18.67;16.70;;;;;;;21.81;99.45;93110.19;5015247;28;20228;-75
2023/07/16 01:50:47;;;;;;;20.85;18.27;;;;;;;21.67;100.00;93101.75;5013256;28;20221;-74
2023/07/16 01:53:13;;;;;;;20.25;18.23;;;;;;;21.67;100.00;93120.38;5024515;28;20181;-76
2023/07/16 01:55:38;;;;;;;20.42;18.27;;;;;;;21.67;100.00;93117.72;5011822;28;20277;-75
2023/07/16 01:58:05;;;;;;;20.73;18.45;;;;;;;21.69;100.00;93123.47;5011004;28;20186;-75
2023/07/16 02:00:30;;;;;;;22.58;19.50;;;;;;;21.66;100.00;93118.81;5012355;28;20225;-75
2023/07/16 02:02:56;;;;;;;21.42;19.13;;;;;;;21.64;100.00;93129.00;5012782;28;20220;-75
2023/07/16 02:05:21;;;;;;;21.85;19.45;;;;;;;21.65;100.00;93127.91;5013742;28;20248;-75
2023/07/16 02:07:46;;;;;;;20.17;18.00;;;;;;;21.55;100.00;93125.69;5028481;28;20265;-75
2023/07/16 02:10:12;;;;;;;21.08;18.77;;;;;;;21.61;100.00;93122.47;5018573;28;20229;-72
2023/07/16 02:12:37;;;;;;;20.23;18.25;;;;;;;21.59;100.00;93126.56;5012525;28;20192;-75
2023/07/16 02:15:03;;;;;;;24.38;19.73;;;;;;;21.58;100.00;93127.69;5012529;28;20231;-75
2023/07/16 02:17:28;;;;;;;20.65;18.52;;;;;;;21.38;100.00;93115.28;5012674;28;20226;-74
2023/07/16 02:19:54;;;;;;;20.63;18.67;;;;;;;21.39;100.00;93119.50;5024932;28;20222;-75
2023/07/16 02:22:20;;;;;;;20.98;18.77;;;;;;;21.39;100.00;93119.50;5010834;28;20196;-75
2023/07/16 02:24:45;;;;;;;22.75;17.77;;;;;;;21.43;100.00;93104.44;5012411;28;20240;-74
2023/07/16 02:27:10;;;;;;;21.15;18.90;;;;;;;21.43;100.00;93115.84;5012536;28;20185;-75
2023/07/16 02:29:36;;;;;;;22.02;19.85;;;;;;;21.40;100.00;93121.81;5010561;28;20233;-75
2023/07/16 02:32:01;;;;;;;20.90;18.80;;;;;;;21.39;100.00;93116.84;5012565;28;20197;-76
2023/07/16 02:34:27;;;;;;;22.15;19.83;;;;;;;21.22;100.00;93122.34;5010933;28;20194;-73
2023/07/16 02:36:52;;;;;;;28.50;18.55;;;;;;;21.27;100.00;93127.47;5024117;28;20184;-72
2023/07/16 02:39:17;;;;;;;25.92;19.85;;;;;;;21.34;100.00;93117.06;5011754;28;20209;-72
2023/07/16 02:41:43;;;;;;;19.52;17.63;;;;;;;21.31;100.00;93120.41;5011182;28;20190;-72
2023/07/16 02:44:09;;;;;;;20.67;18.70;;;;;;;21.32;100.00;93129.91;5012945;28;20195;-72
2023/07/16 02:46:34;;;;;;;21.42;19.23;;;;;;;21.34;100.00;93130.34;5011216;28;20218;-72
2023/07/16 02:49:00;;;;;;;20.48;18.48;;;;;;;21.29;100.00;93125.25;5017314;28;20281;-72
2023/07/16 02:51:25;;;;;;;21.50;19.23;;;;;;;21.24;100.00;93114.84;5011560;28;20305;-72
2023/07/16 02:53:50;;;;;;;23.05;18.92;;;;;;;21.33;100.00;93115.50;5017711;28;20186;-73
2023/07/16 02:56:16;;;;;;;22.92;19.08;;;;;;;21.35;100.00;93124.72;5015079;28;20245;-72
2023/07/16 02:58:42;;;;;;;21.05;18.85;;;;;;;21.29;100.00;93125.25;5010983;28;20215;-72
2023/07/16 03:01:07;;;;;;;24.13;19.45;;;;;;;21.28;100.00;93129.00;5010872;28;20236;-72
2023/07/16 03:03:32;;;;;;;21.25;19.13;;;;;;;21.35;100.00;93108.00;5013830;28;20181;-72
2023/07/16 03:05:58;;;;;;;20.70;18.00;;;;;;;21.42;100.00;93124.13;5005667;28;20292;-72
2023/07/16 03:08:26;;;;;;;22.13;19.83;;;;;;;21.41;100.00;93125.25;5013040;28;20178;-72
2023/07/16 03:10:51;;;;;;;21.88;18.85;;;;;;;21.31;100.00;93123.06;5014721;28;20232;-72
2023/07/16 03:13:17;;;;;;;21.58;18.63;;;;;;;21.49;100.00;93129.69;5012101;28;20261;-72
2023/07/16 03:15:42;;;;;;;22.63;18.88;;;;;;;21.42;100.00;93130.22;5011206;28;20222;-72
2023/07/16 03:18:07;;;;;;;22.35;19.92;;;;;;;21.44;100.00;93129.91;5012683;28;20212;-72
2023/07/16 03:20:33;;;;;;;25.73;18.95;;;;;;;21.53;100.00;93135.88;5010297;28;20230;-72
2023/07/16 03:22:58;;;;;;;22.00;18.90;;;;;;;21.60;100.00;93138.75;5011326;28;20202;-72
2023/07/16 03:25:23;;;;;;;22.52;19.88;;;;;;;21.56;100.00;93141.31;5009928;28;20240;-72
2023/07/16 03:27:49;;;;;;;23.65;19.23;;;;;;;21.62;100.00;93136.56;5012564;28;20188;-72
2023/07/16 03:30:14;;;;;;;24.98;19.25;;;;;;;21.78;100.00;93148.06;5010933;28;20246;-72
2023/07/16 03:32:40;;;;;;;21.30;19.10;;;;;;;21.77;100.00;93141.22;5013052;28;20219;-73
2023/07/16 03:35:05;;;;;;;21.90;19.55;;;;;;;21.78;100.00;93148.06;5010413;28;20241;-72
2023/07/16 03:37:31;;;;;;;21.60;19.40;;;;;;;21.99;100.00;93144.16;5012052;28;20208;-72
2023/07/16 03:39:56;;;;;;;23.10;20.23;;;;;;;22.05;100.00;93145.47;5009813;28;20291;-72
2023/07/16 03:42:22;;;;;;;22.63;18.92;;;;;;;22.13;100.00;93143.81;5013567;28;20183;-72
2023/07/16 03:44:47;;;;;;;20.83;18.73;;;;;;;22.27;100.00;93152.22;5017675;28;20332;-72
2023/07/16 03:47:13;;;;;;;22.92;19.67;;;;;;;22.09;100.00;93153.56;5014937;28;20189;-72
2023/07/16 03:49:39;;;;;;;21.98;19.65;;;;;;;21.86;100.00;93155.16;5011707;28;20490;-72
2023/07/16 03:52:05;;;;;;;22.05;19.73;;;;;;;22.29;100.00;93157.19;5012072;28;20182;-72
2023/07/16 03:54:31;;;;;;;21.08;18.95;;;;;;;22.61;100.00;93150.91;5010179;28;20190;-72
2023/07/16 03:56:56;;;;;;;19.95;18.05;;;;;;;22.76;98.83;93153.59;5009690;28;20196;-72
2023/07/16 03:59:22;;;;;;;20.63;18.50;;;;;;;22.75;98.73;93154.72;5011999;28;20181;-72
2023/07/16 04:01:47;;;;;;;20.13;18.02;;;;;;;22.92;97.18;93154.41;5015156;28;20185;-72
2023/07/16 04:04:13;;;;;;;20.00;17.88;;;;;;;23.05;97.26;93163.13;5022271;28;20826;-72
2023/07/16 04:06:38;;;;;;;19.42;17.73;;;;;;;23.30;95.74;93165.31;5011679;28;20244;-72
2023/07/16 04:09:04;;;;;;;20.38;18.48;;;;;;;23.30;94.92;93169.88;5015701;28;20185;-73
2023/07/16 04:11:29;;;;;;;22.70;19.75;;;;;;;23.36;95.52;93163.94;5008180;28;20223;-72
2023/07/16 04:13:55;;;;;;;20.55;18.55;;;;;;;23.58;93.66;93162.59;5010006;28;20174;-72
2023/07/16 04:16:20;;;;;;;21.65;19.60;;;;;;;23.73;93.12;93162.56;5009726;28;20226;-71
2023/07/16 04:18:45;;;;;;;22.83;20.05;;;;;;;23.88;92.69;93168.97;5010314;28;20243;-73
2023/07/16 04:21:11;;;;;;;20.83;19.02;;;;;;;24.06;91.33;93174.75;5014194;28;20234;-73
2023/07/16 04:23:36;;;;;;;19.58;17.52;;;;;;;24.10;89.21;93175.59;5009671;28;20237;-71
2023/07/16 04:26:02;;;;;;;20.33;18.23;;;;;;;23.97;90.92;93174.94;5009314;28;20217;-72
2023/07/16 04:28:27;;;;;;;22.63;17.63;;;;;;;23.53;92.77;93171.59;5010902;28;20190;-72
2023/07/16 04:30:52;;;;;;;20.52;17.25;;;;;;;24.07;89.70;93176.28;5012270;28;20319;-72
2023/07/16 04:33:19;;;;;;;22.77;17.08;;;;;;;23.94;88.99;93174.84;5014681;28;20198;-73
2023/07/16 04:35:44;;;;;;;19.08;17.30;;;;;;;23.89;89.94;93173.22;5012142;28;20253;-73
2023/07/16 04:38:09;;;;;;;18.23;16.25;;;;;;;24.18;89.49;93171.97;5014474;28;20186;-72
2023/07/16 04:40:35;;;;;;;19.27;17.10;;;;;;;24.22;88.75;93165.59;5012919;28;20222;-72
2023/07/16 04:43:00;;;;;;;18.63;16.50;;;;;;;24.35;88.31;93177.69;5015875;28;20226;-72
2023/07/16 04:45:26;;;;;;;19.05;17.20;;;;;;;24.26;88.19;93165.66;5023638;28;20833;-72
2023/07/16 04:47:51;;;;;;;21.90;16.48;;;;;;;24.18;87.84;93190.66;5016031;28;20195;-72
2023/07/16 04:50:16;;;;;;;18.25;16.30;;;;;;;24.34;86.74;93191.38;5016725;28;20218;-72
2023/07/16 04:52:42;;;;;;;18.98;16.35;;;;;;;24.56;85.46;93180.03;5013889;28;20202;-72
2023/07/16 04:55:07;;;;;;;18.63;16.08;;;;;;;24.93;84.88;93194.53;5020008;28;20225;-72
2023/07/16 04:57:33;;;;;;;17.90;16.17;;;;;;;25.11;83.54;93199.09;5018274;28;20176;-72
2023/07/16 04:59:59;;;;;;;17.90;16.15;;;;;;;25.20;82.96;93206.88;5015116;28;20231;-72
2023/07/16 05:02:24;;;;;;;17.98;16.15;;;;;;;25.22;83.35;93204.63;5019351;28;20201;-72
2023/07/16 05:04:49;;;;;;;17.10;15.45;;;;;;;25.33;82.23;93207.50;5028336;28;20241;-72
2023/07/16 05:07:15;;;;;;;16.00;14.23;;;;;;;25.49;80.26;93208.19;5008992;28;20997;-72
2023/07/16 05:09:41;;;;;;;17.85;14.95;;;;;;;25.35;80.15;93208.72;5011821;28;20233;-72
2023/07/16 05:12:07;;;;;;;16.67;15.07;;;;;;;25.16;81.05;93206.84;5012553;28;20251;-72
2023/07/16 05:14:44;;;;;;;18.60;14.52;;;;;;;25.01;81.85;93198.91;5000483;28;20180;-72
2023/07/16 05:17:09;;;;;;;17.17;13.80;;;;;;;24.95;81.97;93203.75;5016740;28;20186;-71
2023/07/16 05:19:35;;;;;;;16.87;15.00;;;;;;;25.42;80.06;93202.75;5024099;28;20541;-70
2023/07/16 05:22:00;;;;;;;16.00;14.60;;;;;;;25.00;81.55;93206.13;5016395;28;20691;-74
2023/07/16 05:24:25;;;;;;;16.17;13.77;;;;;;;24.96;81.96;93210.66;5009948;28;20182;-71
2023/07/16 05:26:52;;;;;;;16.63;15.02;;;;;;;25.31;80.06;93196.41;5017853;28;20219;-71
2023/07/16 05:29:17;;;;;;;15.82;14.13;;;;;;;25.45;79.83;93208.13;5011407;28;20184;-71
2023/07/16 05:31:44;;;;;;;17.42;15.73;;;;;;;25.22;81.44;93204.63;5014039;28;20194;-71
2023/07/16 05:34:09;;;;;;;18.85;15.82;;;;;;;24.55;85.00;93207.84;5017922;28;20191;-71
2023/07/16 05:36:35;;;;;;;17.13;15.48;;;;;;;24.90;83.51;93209.34;5011285;28;20219;-70
2023/07/16 05:39:00;;;;;;;16.85;15.35;;;;;;;24.88;84.10;93210.84;5011739;28;20215;-71
2023/07/16 05:41:25;;;;;;;16.60;14.73;;;;;;;24.94;82.60;93212.09;5009426;28;20881;-70
2023/07/16 05:43:51;;;;;;;16.42;14.77;;;;;;;26.87;74.65;93206.47;5011459;28;20199;-69
2023/07/16 05:46:16;;;;;;;17.85;16.08;;;;;;;27.06;72.81;93222.41;5010828;28;20257;-72
2023/07/16 05:48:41;;;;;;;14.82;13.57;;;;;;;27.90;70.18;93228.69;5013364;28;20196;-72
2023/07/16 05:51:07;;;;;;;13.38;10.93;;;;;;;28.59;65.98;93230.41;5015541;28;20283;-72
2023/07/16 05:53:32;;;;;;;12.73;11.63;;;;;;;28.91;64.52;93242.06;5011455;28;20188;-71
2023/07/16 05:55:58;;;;;;;11.27;10.43;;;;;;;30.46;58.23;93247.88;5021007;28;20272;-71
2023/07/16 05:58:23;;;;;;;11.38;10.10;;;;;;;33.10;49.75;93249.88;5012155;28;20201;-71
2023/07/16 06:00:48;;;;;;;11.98;10.48;;;;;;;35.71;43.66;93260.91;5011169;28;20227;-71
2023/07/16 06:03:16;;;;;;;10.50;9.50;;;;;;;36.87;38.14;93262.53;5011240;28;20255;-72
2023/07/16 06:05:42;;;;;;;9.98;8.90;;;;;;;38.46;35.79;93261.53;5012243;28;20286;-71
2023/07/16 06:08:07;;;;;;;10.65;9.65;;;;;;;37.46;36.06;93266.81;5009830;28;20223;-71
2023/07/16 06:10:36;;;;;;;10.40;9.52;;;;;;;37.92;36.11;93261.59;5023545;28;20230;-71
2023/07/16 06:13:02;;;;;;;10.05;9.10;;;;;;;37.66;35.41;93270.91;5009890;28;20192;-71
2023/07/16 06:15:27;;;;;;;8.68;8.05;;;;;;;37.80;35.94;93262.34;5012739;28;20227;-70
2023/07/16 06:17:52;;;;;;;9.63;8.80;;;;;;;36.89;37.66;93262.84;5011678;28;20183;-71
2023/07/16 06:20:18;;;;;;;9.05;8.32;;;;;;;39.34;34.24;93275.00;5003395;28;20223;-71
2023/07/16 06:22:43;;;;;;;9.85;8.90;;;;;;;39.47;33.65;93275.75;5011230;28;20207;-74
2023/07/16 06:25:10;;;;;;;9.07;8.40;;;;;;;40.65;30.65;93272.44;5007869;28;21019;-71
2023/07/16 06:27:36;;;;;;;9.07;8.13;;;;;;;41.24;29.77;93277.47;5010667;28;20192;-69
2023/07/16 06:30:01;;;;;;;10.27;9.32;;;;;;;38.41;33.65;93262.84;5009804;28;20230;-71
2023/07/16 06:32:27;;;;;;;9.75;8.95;;;;;;;38.29;34.03;93262.84;5010821;28;20179;-70
2023/07/16 06:34:52;;;;;;;10.35;9.35;;;;;;;38.34;33.98;93259.56;5011423;28;20761;-70
2023/07/16 06:37:17;;;;;;;13.80;12.45;;;;;;;39.69;31.88;93273.78;5009240;28;20195;-70
2023/07/16 06:39:43;;;;;;;9.93;9.07;;;;;;;38.10;34.03;93259.13;5008964;28;20235;-69
2023/07/16 06:42:08;;;;;;;9.75;8.80;;;;;;;37.10;35.80;93256.09;5011258;28;20194;-69
2023/07/16 06:44:34;;;;;;;10.45;9.55;;;;;;;38.16;33.98;93227.38;5013955;28;20257;-70
2023/07/16 06:46:59;;;;;;;12.98;9.63;;;;;;;35.64;40.24;93248.25;5011656;28;20217;-70
2023/07/16 06:49:24;;;;;;;11.98;10.82;;;;;;;36.35;38.32;93239.31;5008748;28;20222;-70
2023/07/16 06:51:50;;;;;;;9.40;8.60;;;;;;;33.42;43.54;93239.47;5010136;28;20206;-69
2023/07/16 06:54:15;;;;;;;10.13;9.32;;;;;;;31.68;49.97;93227.06;5010352;28;20179;-70
2023/07/16 06:56:41;;;;;;;9.30;8.68;;;;;;;30.60;53.99;93226.28;5005880;28;20226;-69
2023/07/16 07:05:49;;;;;;;18.13;11.25;;;;;;;28.33;62.64;93216.38;5069305;27;20329;-71
2023/07/16 07:08:15;;;;;;;12.95;10.60;;;;;;;28.69;61.11;93224.28;5036370;28;20188;-73
2023/07/16 07:10:40;;;;;;;11.68;10.77;;;;;;;28.43;60.64;93216.44;5041457;28;20225;-70
2023/07/16 07:13:06;;;;;;;12.70;11.50;;;;;;;28.02;61.74;93212.28;5041002;28;20182;-70
2023/07/16 07:15:31;;;;;;;12.35;11.23;;;;;;;27.81;62.92;93212.09;5048223;28;20234;-71
2023/07/16 07:17:57;;;;;;;13.55;12.27;;;;;;;27.77;64.36;93211.28;5064882;28;21060;-71
2023/07/16 07:20:22;;;;;;;12.95;11.75;;;;;;;27.96;64.87;93211.09;5056536;28;20253;-71
2023/07/16 07:22:48;;;;;;;12.07;11.02;;;;;;;28.24;63.63;93197.88;5059941;28;20173;-73
2023/07/16 07:25:13;;;;;;;13.55;12.10;;;;;;;28.23;63.02;93212.47;5061127;28;20238;-71
2023/07/16 07:27:38;;;;;;;12.55;11.43;;;;;;;28.17;62.27;93211.28;5057722;28;20508;-72
2023/07/16 07:30:04;;;;;;;13.35;11.13;;;;;;;27.68;66.51;93195.50;5061410;28;20225;-72
2023/07/16 07:32:30;;;;;;;12.88;11.98;;;;;;;27.64;67.21;93210.78;5060454;28;20920;-72
2023/07/16 07:34:55;;;;;;;16.40;12.88;;;;;;;28.12;64.66;93217.00;5059750;28;20296;-72
2023/07/16 07:37:20;;;;;;;15.27;12.48;;;;;;;27.70;66.14;93216.59;5063730;28;20181;-72
2023/07/16 07:39:51;;;;;;;12.13;11.02;;;;;;;28.29;63.85;93216.34;5063754;28;20238;-72
2023/07/16 07:42:17;;;;;;;12.68;11.45;;;;;;;28.21;63.93;93220.91;5055507;28;20196;-71
2023/07/16 07:44:42;;;;;;;13.93;12.10;;;;;;;28.33;63.13;93219.81;5060286;28;20276;-73
2023/07/16 07:47:08;;;;;;;13.70;12.30;;;;;;;28.34;61.87;93221.38;5054948;28;20179;-71
2023/07/16 07:49:34;;;;;;;13.40;12.13;;;;;;;28.31;63.13;93213.28;5052778;28;20194;-71
2023/07/16 07:51:59;;;;;;;14.40;11.77;;;;;;;28.48;62.83;93208.06;5053737;28;20186;-70
2023/07/16 07:54:25;;;;;;;14.52;13.10;;;;;;;28.42;63.51;93216.81;5059356;28;20213;-71
2023/07/16 07:56:50;;;;;;;12.27;11.20;;;;;;;28.76;63.43;93218.19;5057174;28;20193;-71
2023/07/16 07:59:16;;;;;;;12.85;11.75;;;;;;;28.04;65.42;93220.75;5057285;28;20209;-71
2023/07/16 08:01:41;;;;;;;15.77;13.48;;;;;;;28.03;66.44;93213.84;5053602;28;20188;-71
2023/07/16 08:04:06;;;;;;;13.82;12.73;;;;;;;28.23;65.47;93223.22;5057518;28;20241;-71
2023/07/16 08:06:32;;;;;;;14.05;12.85;;;;;;;28.12;64.40;93219.66;5054667;28;20289;-71
2023/07/16 08:08:57;;;;;;;13.60;12.40;;;;;;;28.41;64.60;93218.72;5060761;28;20204;-71
2023/07/16 08:11:23;;;;;;;14.07;12.73;;;;;;;28.43;64.92;93215.66;5055892;28;20206;-73
2023/07/16 08:13:49;;;;;;;15.45;13.88;;;;;;;28.60;63.21;93202.34;5053348;28;20186;-73
2023/07/16 08:16:14;;;;;;;15.75;14.15;;;;;;;29.19;60.51;93215.34;5052311;28;20261;-72
2023/07/16 08:18:40;;;;;;;16.30;13.27;;;;;;;29.45;60.37;93228.47;5050888;28;20181;-75
2023/07/16 08:21:05;;;;;;;15.45;13.85;;;;;;;29.50;59.77;93225.41;5047604;28;20221;-71
2023/07/16 08:23:31;;;;;;;15.00;13.60;;;;;;;29.04;62.58;93223.69;5042655;28;20185;-71
2023/07/16 08:25:56;;;;;;;13.90;12.30;;;;;;;29.40;59.14;93220.00;5048063;28;20226;-71
2023/07/16 08:28:21;;;;;;;13.85;12.45;;;;;;;28.84;61.03;93227.84;5049365;28;20259;-67
2023/07/16 08:30:50;;;;;;;16.27;13.48;;;;;;;28.72;61.38;93217.41;5047750;28;20232;-69
2023/07/16 08:33:15;;;;;;;14.70;13.20;;;;;;;29.10;61.70;93223.00;5046911;28;20201;-69
2023/07/16 08:35:41;;;;;;;15.57;14.10;;;;;;;29.25;59.75;93215.72;5049103;28;20296;-67
2023/07/16 08:38:10;;;;;;;15.93;14.32;;;;;;;29.40;60.88;93230.78;5043503;28;20187;-68
2023/07/16 08:40:38;;;;;;;15.57;13.82;;;;;;;28.94;61.68;93224.41;5048458;28;20241;-69
2023/07/16 08:43:06;;;;;;;13.63;12.48;;;;;;;29.10;60.78;93216.84;5048068;28;20216;-68
2023/07/16 08:45:39;;;;;;;16.42;13.70;;;;;;;28.95;61.14;93220.59;5046935;28;20253;-69
2023/07/16 08:48:05;;;;;;;15.75;14.35;;;;;;;28.79;63.61;93212.84;5049490;28;20209;-69
2023/07/16 08:50:31;;;;;;;16.65;14.02;;;;;;;28.98;60.72;93215.22;5043959;28;20223;-69
2023/07/16 08:52:58;;;;;;;15.07;13.55;;;;;;;29.02;60.09;93216.00;5046271;28;20186;-69
2023/07/16 08:55:23;;;;;;;13.95;12.63;;;;;;;29.28;60.50;93215.75;5044301;28;20228;-69
2023/07/16 08:57:49;;;;;;;14.45;13.15;;;;;;;29.48;59.09;93216.94;5049108;28;20193;-69
2023/07/16 09:00:15;;;;;;;13.90;12.52;;;;;;;29.30;58.01;93221.53;5041451;28;20278;-70
2023/07/16 09:02:41;;;;;;;13.88;12.48;;;;;;;29.33;60.24;93214.59;5047350;28;20216;-69
2023/07/16 09:05:08;;;;;;;15.32;13.75;;;;;;;29.38;59.34;93211.53;5044974;28;20215;-68
2023/07/16 09:07:36;;;;;;;14.00;12.73;;;;;;;29.38;60.10;93211.53;5039931;28;20252;-69
2023/07/16 09:10:01;;;;;;;15.05;13.60;;;;;;;29.65;57.53;93216.25;5054079;28;20244;-69
2023/07/16 09:12:27;;;;;;;15.77;13.98;;;;;;;29.63;60.51;93213.19;5049124;28;20239;-69
2023/07/16 09:14:53;;;;;;;14.27;12.68;;;;;;;29.74;57.13;93211.25;5038817;28;20229;-69
2023/07/16 09:17:23;;;;;;;14.63;13.07;;;;;;;29.70;59.66;93207.78;5044387;28;20207;-68
2023/07/16 09:19:50;;;;;;;16.40;14.65;;;;;;;29.78;59.18;93191.66;5049347;28;20237;-68
2023/07/16 09:22:17;;;;;;;13.77;12.60;;;;;;;29.99;57.57;93213.19;5051641;28;20196;-69
2023/07/16 09:24:47;;;;;;;14.27;13.07;;;;;;;29.99;55.81;93215.91;5046551;28;20250;-69
2023/07/16 09:27:14;;;;;;;14.73;13.07;;;;;;;29.74;57.74;93208.56;5047401;28;20185;-67
2023/07/16 09:29:40;;;;;;;14.85;13.60;;;;;;;29.81;58.40;93207.03;5049635;28;20229;-67
2023/07/16 09:32:06;;;;;;;15.23;13.85;;;;;;;29.83;56.76;93204.72;5046915;28;20202;-67
2023/07/16 09:34:31;;;;;;;15.00;13.50;;;;;;;29.74;56.39;93200.47;5042996;28;20212;-67
2023/07/16 09:36:57;;;;;;;14.27;12.77;;;;;;;29.74;57.84;93205.09;5046226;28;20187;-68
2023/07/16 09:39:25;;;;;;;14.65;13.30;;;;;;;29.67;57.71;93208.56;5052571;28;20658;-67
2023/07/16 09:41:51;;;;;;;14.57;13.18;;;;;;;29.62;59.47;93198.13;5024838;28;20186;-67
2023/07/16 09:44:17;;;;;;;13.63;12.52;;;;;;;29.85;57.64;93202.41;5022441;28;20213;-67
2023/07/16 09:46:44;;;;;;;13.57;12.43;;;;;;;30.07;58.69;93203.97;5024441;28;20194;-67
2023/07/16 09:49:10;;;;;;;14.02;12.57;;;;;;;29.90;58.37;93196.66;5022870;28;20195;-66
2023/07/16 09:51:37;;;;;;;14.48;13.10;;;;;;;29.73;57.96;93205.50;5046656;28;20218;-67
2023/07/16 09:54:03;;;;;;;13.15;12.02;;;;;;;29.47;60.38;93188.50;5044466;28;20189;-67
2023/07/16 09:56:37;;;;;;;14.32;13.20;;;;;;;29.83;58.98;93189.34;5041162;28;20284;-66
2023/07/16 09:59:07;;;;;;;14.07;12.93;;;;;;;29.99;58.92;93197.03;5045796;28;20191;-67
2023/07/16 10:01:35;;;;;;;15.57;13.05;;;;;;;30.21;57.44;93196.66;5042165;28;20217;-67
2023/07/16 10:04:16;;;;;;;14.02;12.75;;;;;;;30.18;56.32;93193.97;5048621;28;20225;-67
2023/07/16 10:06:51;;;;;;;16.50;13.82;;;;;;;29.95;57.52;93185.50;5041251;28;20210;-68
2023/07/16 10:09:36;;;;;;;21.10;14.35;;;;;;;30.49;57.80;93183.16;5041465;28;20217;-68
2023/07/16 10:12:18;;;;;;;14.68;13.13;;;;;;;30.40;55.75;93190.13;5038003;28;21831;-67
2023/07/16 10:14:48;;;;;;;14.10;12.73;;;;;;;30.46;56.95;93188.56;5040022;28;20238;-67
2023/07/16 10:17:22;;;;;;;14.55;13.15;;;;;;;30.04;57.56;93148.19;5043799;28;20174;-67
2023/07/16 10:19:58;;;;;;;14.20;12.60;;;;;;;30.23;57.53;93185.53;5043046;28;20313;-67
2023/07/16 10:22:35;;;;;;;14.00;12.63;;;;;;;30.41;55.92;93186.25;5044396;28;20215;-68
2023/07/16 10:25:02;;;;;;;13.98;12.77;;;;;;;30.48;56.27;93180.84;5044960;28;20230;-67
2023/07/16 10:27:29;;;;;;;19.23;13.25;;;;;;;30.31;58.32;93176.25;5046648;28;20182;-67
2023/07/16 10:29:54;;;;;;;13.90;12.60;;;;;;;30.49;56.16;93177.00;5043735;28;20244;-68
2023/07/16 10:32:20;;;;;;;14.07;12.80;;;;;;;30.63;55.63;93172.31;5037434;28;20250;-67
2023/07/16 10:34:46;;;;;;;15.85;12.43;;;;;;;30.73;56.55;93176.16;5039261;28;20229;-66
2023/07/16 10:37:11;;;;;;;14.70;13.15;;;;;;;30.67;55.99;93172.31;5044164;28;20209;-67
2023/07/16 10:39:48;;;;;;;13.55;12.35;;;;;;;30.60;57.11;93169.66;5048525;28;20233;-69
2023/07/16 10:42:15;;;;;;;14.57;13.38;;;;;;;30.67;55.89;93167.72;5037738;28;20187;-67
2023/07/16 10:44:40;;;;;;;16.02;13.23;;;;;;;30.93;55.34;93161.09;5053962;28;20230;-66
2023/07/16 10:47:06;;;;;;;15.88;13.95;;;;;;;31.09;54.03;93172.19;5036730;28;20688;-66
2023/07/16 10:49:31;;;;;;;14.95;13.40;;;;;;;30.68;54.26;93168.50;5040823;28;20204;-68
2023/07/16 10:52:00;;;;;;;15.40;13.48;;;;;;;30.67;54.52;93169.63;5042219;28;20250;-67
2023/07/16 10:54:26;;;;;;;14.80;13.40;;;;;;;30.90;55.56;93164.56;5038901;28;20193;-68
2023/07/16 10:56:51;;;;;;;14.10;12.85;;;;;;;31.17;51.50;93166.38;5050534;28;20183;-67
2023/07/16 10:59:17;;;;;;;14.38;13.05;;;;;;;31.09;52.50;93169.50;5047628;28;20217;-68
2023/07/16 11:01:44;;;;;;;16.90;14.32;;;;;;;30.98;52.11;93166.84;5038983;28;20249;-68
2023/07/16 11:04:09;;;;;;;14.45;13.02;;;;;;;30.82;52.84;93171.16;5041724;28;20230;-69
2023/07/16 11:06:35;;;;;;;15.75;14.00;;;;;;;30.71;54.81;93154.97;5048783;28;20225;-72
2023/07/16 11:09:08;;;;;;;13.95;12.68;;;;;;;30.74;55.46;93159.59;5042526;28;20186;-69
2023/07/16 11:11:34;;;;;;;17.70;15.55;;;;;;;30.68;52.21;93157.72;5047625;28;21471;-69
2023/07/16 11:13:59;;;;;;;16.70;13.20;;;;;;;30.87;52.98;93149.16;5044027;28;20190;-69
2023/07/16 11:16:25;;;;;;;15.90;14.35;;;;;;;31.10;52.26;93144.81;5036983;28;20250;-72
2023/07/16 11:18:51;;;;;;;13.88;12.60;;;;;;;30.95;51.97;93150.69;5042165;28;20204;-73
2023/07/16 11:21:20;;;;;;;14.55;13.35;;;;;;;31.11;53.08;93153.69;5044649;28;20261;-75